Time;durP1;ratioP1;P1;durP2;ratioP2;P2;SDS_P1;SDS_P2;PMS_P1;PMS_P2;Temp;Humidity;BMP_temperature;BMP_pressure;BME280_temperature;BME280_humidity;BME280_pressure;Samples;Min_cycle;Max_cycle;Signal;HPM_P1;HPM_P2
2023/03/07 00:00:44;;;;;;;4.78;3.55;;;5.90;99.90;;;;;;5005362;28;20199;-49
2023/03/07 00:03:15;;;;;;;6.07;3.92;;;5.90;99.90;;;;;;5004690;28;20246;-50
2023/03/07 00:05:44;;;;;;;4.50;3.55;;;6.00;99.90;;;;;;4999973;28;20290;-49
2023/03/07 00:08:16;;;;;;;4.90;3.85;;;5.90;99.90;;;;;;4998588;28;20727;-47
2023/03/07 00:10:46;;;;;;;3.92;3.30;;;5.90;99.90;;;;;;5008905;28;20199;-49
2023/03/07 00:13:15;;;;;;;4.22;3.00;;;5.90;99.90;;;;;;5004989;28;20246;-49
2023/03/07 00:15:44;;;;;;;4.97;3.75;;;6.00;99.90;;;;;;5005582;28;20624;-49
2023/03/07 00:18:12;;;;;;;4.10;2.95;;;5.90;99.90;;;;;;5002521;28;20227;-48
2023/03/07 00:20:41;;;;;;;5.70;3.72;;;5.90;99.90;;;;;;5005611;28;20286;-49
2023/03/07 00:23:10;;;;;;;5.07;3.28;;;5.90;99.90;;;;;;5000957;28;20314;-49
2023/03/07 00:25:38;;;;;;;5.57;3.30;;;6.00;99.90;;;;;;5025074;28;20184;-49
2023/03/07 00:28:12;;;;;;;5.10;3.85;;;5.90;99.90;;;;;;5004512;28;20306;-48
2023/03/07 00:30:41;;;;;;;4.32;3.08;;;5.90;99.90;;;;;;5002978;28;20202;-48
2023/03/07 00:33:10;;;;;;;4.03;3.33;;;5.90;99.90;;;;;;4997671;28;20236;-48
2023/03/07 00:35:38;;;;;;;3.97;3.13;;;5.90;99.90;;;;;;4995194;28;20290;-49
2023/03/07 00:38:07;;;;;;;3.92;2.72;;;5.90;99.90;;;;;;4985540;28;20214;-48
2023/03/07 00:40:36;;;;;;;3.08;2.75;;;5.90;99.90;;;;;;5000709;28;20250;-48
2023/03/07 00:43:05;;;;;;;4.78;3.47;;;5.90;99.90;;;;;;5007219;28;20241;-50
2023/03/07 00:45:35;;;;;;;4.05;3.13;;;5.90;99.90;;;;;;5004549;28;20230;-49
2023/03/07 00:48:04;;;;;;;3.85;2.75;;;5.90;99.90;;;;;;5004296;28;20292;-48
2023/03/07 00:50:34;;;;;;;4.70;3.38;;;5.90;99.90;;;;;;5008459;28;20751;-48
2023/03/07 00:53:03;;;;;;;4.88;2.88;;;5.90;99.90;;;;;;5003219;28;20253;-50
2023/03/07 00:55:32;;;;;;;3.42;2.95;;;5.90;99.90;;;;;;5007754;28;20245;-49
2023/03/07 00:58:03;;;;;;;4.22;2.72;;;5.90;99.90;;;;;;5002515;28;20261;-49
2023/03/07 01:00:32;;;;;;;5.63;2.92;;;5.90;99.90;;;;;;5003821;28;20279;-49
2023/03/07 01:03:04;;;;;;;3.88;2.88;;;5.90;99.90;;;;;;4994486;28;20786;-48
2023/03/07 01:05:32;;;;;;;4.10;2.60;;;5.90;99.90;;;;;;5005009;28;20192;-49
2023/03/07 01:08:01;;;;;;;4.22;2.85;;;5.90;99.90;;;;;;5002493;28;20245;-50
2023/03/07 01:10:32;;;;;;;4.10;2.60;;;5.90;99.90;;;;;;5005544;28;20649;-47
2023/03/07 01:13:01;;;;;;;3.60;2.40;;;5.90;99.90;;;;;;4994696;28;20653;-49
2023/03/07 01:15:30;;;;;;;4.57;3.08;;;5.90;99.90;;;;;;5006524;28;20286;-47
2023/03/07 01:18:00;;;;;;;3.33;2.42;;;5.90;99.90;;;;;;4997563;28;20226;-48
2023/03/07 01:20:34;;;;;;;3.83;2.75;;;5.90;99.90;;;;;;5007866;28;20203;-49
2023/03/07 01:23:03;;;;;;;3.53;3.03;;;5.90;99.90;;;;;;4998601;28;20286;-48
2023/03/07 01:25:41;;;;;;;3.33;2.85;;;5.90;99.90;;;;;;4983274;28;20207;-49
2023/03/07 01:28:13;;;;;;;2.72;2.45;;;5.90;99.90;;;;;;5001068;28;20222;-49
2023/03/07 01:30:42;;;;;;;3.40;3.10;;;5.90;99.90;;;;;;4998871;28;20247;-48
2023/03/07 01:33:11;;;;;;;4.20;2.95;;;5.90;99.90;;;;;;4999318;28;20309;-50
2023/03/07 01:35:41;;;;;;;3.33;2.67;;;5.90;99.90;;;;;;5002247;28;20195;-48
2023/03/07 01:38:11;;;;;;;3.78;2.22;;;5.90;99.90;;;;;;5003844;28;20227;-49
2023/03/07 01:40:40;;;;;;;4.30;2.83;;;5.90;99.90;;;;;;5002851;28;20256;-47
2023/03/07 01:43:24;;;;;;;4.45;2.83;;;5.90;99.90;;;;;;5018974;28;20703;-49
2023/03/07 01:46:37;;;;;;;3.20;2.42;;;5.90;99.90;;;;;;5017598;28;20209;-50
2023/03/07 01:49:11;;;;;;;4.80;3.15;;;5.90;99.90;;;;;;4993861;28;20602;-50
2023/03/07 01:51:44;;;;;;;3.50;2.60;;;5.90;99.90;;;;;;5021237;28;20275;-50
2023/03/07 01:54:17;;;;;;;3.50;2.85;;;5.90;99.90;;;;;;5023679;28;20199;-49
2023/03/07 01:56:47;;;;;;;3.78;2.80;;;5.90;99.90;;;;;;5015848;28;20219;-50
2023/03/07 01:59:22;;;;;;;3.40;2.80;;;5.90;99.90;;;;;;5022099;28;20542;-47
2023/03/07 02:01:51;;;;;;;4.53;2.55;;;5.90;99.90;;;;;;5023840;28;20286;-48
2023/03/07 02:04:28;;;;;;;3.95;2.60;;;5.90;99.90;;;;;;5029071;28;20195;-48
2023/03/07 02:06:59;;;;;;;4.85;3.03;;;5.90;99.90;;;;;;5020210;28;20200;-48
2023/03/07 02:09:32;;;;;;;3.28;2.90;;;5.90;99.90;;;;;;5022049;28;20218;-49
2023/03/07 02:12:01;;;;;;;4.20;3.30;;;5.90;99.90;;;;;;5025143;28;20609;-50
2023/03/07 02:14:31;;;;;;;4.05;2.72;;;5.90;99.90;;;;;;5011782;28;20202;-48
2023/03/07 02:17:04;;;;;;;4.05;2.90;;;5.90;99.90;;;;;;5029432;28;20233;-49
2023/03/07 02:19:53;;;;;;;3.55;2.47;;;5.90;99.90;;;;;;5029415;28;20198;-49
2023/03/07 02:22:23;;;;;;;3.38;3.08;;;5.90;99.90;;;;;;5017728;28;20310;-47
2023/03/07 02:24:56;;;;;;;3.38;2.65;;;5.90;99.90;;;;;;5007231;28;20226;-52
2023/03/07 02:27:28;;;;;;;3.65;2.67;;;5.90;99.90;;;;;;5003774;28;20248;-47
2023/03/07 02:29:57;;;;;;;3.33;2.55;;;5.90;99.90;;;;;;5006455;28;20250;-48
2023/03/07 02:32:30;;;;;;;3.70;2.80;;;5.90;99.90;;;;;;5006149;28;20228;-47
2023/03/07 02:34:59;;;;;;;4.20;3.35;;;5.90;99.90;;;;;;5007858;28;20838;-48
2023/03/07 02:37:32;;;;;;;3.92;2.70;;;5.90;99.90;;;;;;5005452;28;20216;-48
2023/03/07 02:40:06;;;;;;;3.05;2.47;;;5.90;99.90;;;;;;5017794;28;20200;-48
2023/03/07 02:42:39;;;;;;;4.28;2.50;;;5.90;99.90;;;;;;5005719;28;20622;-50
2023/03/07 02:45:14;;;;;;;4.90;2.30;;;5.90;99.90;;;;;;5005207;28;20281;-48
2023/03/07 02:47:44;;;;;;;3.03;2.55;;;5.90;99.90;;;;;;5000802;28;20215;-50
2023/03/07 02:50:16;;;;;;;2.60;2.30;;;5.90;99.90;;;;;;5010873;28;20296;-49
2023/03/07 02:52:48;;;;;;;3.35;2.80;;;5.90;99.90;;;;;;5021888;28;20234;-49
2023/03/07 02:55:17;;;;;;;4.03;3.35;;;5.90;99.90;;;;;;5027687;28;20197;-49
2023/03/07 02:57:57;;;;;;;3.05;2.70;;;5.90;99.90;;;;;;5021190;28;20272;-49
2023/03/07 03:00:26;;;;;;;3.83;2.70;;;5.90;99.90;;;;;;5028831;28;20660;-48
2023/03/07 03:02:58;;;;;;;3.50;2.83;;;5.90;99.90;;;;;;5028037;28;20606;-50
2023/03/07 03:05:27;;;;;;;4.15;3.03;;;5.90;99.90;;;;;;5026672;28;20537;-49
2023/03/07 03:07:56;;;;;;;3.15;2.70;;;5.90;99.90;;;;;;5026862;28;20602;-50
2023/03/07 03:10:25;;;;;;;2.78;2.25;;;5.90;99.90;;;;;;5029476;28;20207;-49
2023/03/07 03:12:54;;;;;;;3.92;3.03;;;5.90;99.90;;;;;;5023603;28;20230;-50
2023/03/07 03:15:25;;;;;;;3.42;2.75;;;5.90;99.90;;;;;;5025911;28;20198;-48
2023/03/07 03:17:54;;;;;;;3.10;2.80;;;5.90;99.90;;;;;;5017422;28;20789;-49
2023/03/07 03:20:26;;;;;;;3.75;2.63;;;5.90;99.90;;;;;;5026820;28;20194;-48
2023/03/07 03:22:57;;;;;;;3.47;3.10;;;5.90;99.90;;;;;;5024792;28;20304;-48
2023/03/07 03:25:26;;;;;;;4.57;2.70;;;5.90;99.90;;;;;;5028971;28;20191;-50
2023/03/07 03:27:55;;;;;;;3.60;2.60;;;5.90;99.90;;;;;;5008451;28;20589;-48
2023/03/07 03:30:31;;;;;;;2.83;2.55;;;5.90;99.90;;;;;;5002707;28;20235;-50
2023/03/07 03:33:01;;;;;;;3.72;2.78;;;5.90;99.90;;;;;;5007754;28;20555;-48
2023/03/07 03:35:32;;;;;;;3.88;3.00;;;5.90;99.90;;;;;;5026266;28;20210;-49
2023/03/07 03:38:02;;;;;;;3.80;2.83;;;5.90;99.90;;;;;;5015968;28;20267;-48
2023/03/07 03:40:31;;;;;;;3.92;3.30;;;5.90;99.90;;;;;;5038014;28;20609;-49
2023/03/07 03:43:00;;;;;;;3.70;2.53;;;5.90;99.90;;;;;;5021387;28;20595;-47
2023/03/07 03:45:30;;;;;;;3.95;3.10;;;5.90;99.90;;;;;;5024942;28;20221;-50
2023/03/07 03:48:01;;;;;;;3.28;2.65;;;5.90;99.90;;;;;;5027451;28;20657;-50
2023/03/07 03:50:31;;;;;;;2.90;2.20;;;5.90;99.90;;;;;;5026085;28;20202;-49
2023/03/07 03:53:00;;;;;;;3.85;2.67;;;5.80;99.90;;;;;;5020791;28;20240;-49
2023/03/07 03:55:29;;;;;;;4.00;2.78;;;5.90;99.90;;;;;;5023464;28;20241;-48
2023/03/07 03:57:59;;;;;;;3.10;2.60;;;5.90;99.90;;;;;;5024806;28;20317;-48
2023/03/07 04:00:27;;;;;;;2.72;2.50;;;5.90;99.90;;;;;;5024495;28;20560;-49
2023/03/07 04:02:58;;;;;;;2.90;2.55;;;5.80;99.90;;;;;;5025862;28;20246;-50
2023/03/07 04:05:26;;;;;;;4.43;3.10;;;5.90;99.90;;;;;;5027496;28;20245;-49
2023/03/07 04:07:55;;;;;;;3.35;3.05;;;5.80;99.90;;;;;;4994674;28;20233;-47
2023/03/07 04:10:24;;;;;;;3.60;2.90;;;5.90;99.90;;;;;;5006643;28;20199;-48
2023/03/07 04:12:52;;;;;;;3.35;2.95;;;5.80;99.90;;;;;;5008604;28;20277;-49
2023/03/07 04:15:22;;;;;;;3.47;2.40;;;5.80;99.90;;;;;;5022173;28;20623;-50
2023/03/07 04:17:50;;;;;;;3.92;3.00;;;5.80;99.90;;;;;;5007094;28;20257;-47
2023/03/07 04:20:20;;;;;;;2.85;2.60;;;5.90;99.90;;;;;;5024369;28;20298;-48
2023/03/07 04:22:49;;;;;;;4.03;2.83;;;5.80;99.90;;;;;;5001778;28;20666;-51
2023/03/07 04:25:19;;;;;;;4.22;3.72;;;5.90;99.90;;;;;;5006581;28;20195;-51
2023/03/07 04:27:47;;;;;;;4.13;3.35;;;5.80;99.90;;;;;;4998335;28;20297;-48
2023/03/07 04:30:16;;;;;;;3.97;2.78;;;5.80;99.90;;;;;;5003495;28;20200;-49
2023/03/07 04:32:46;;;;;;;3.17;2.42;;;5.80;99.90;;;;;;5007921;28;20218;-48
2023/03/07 04:35:14;;;;;;;4.95;3.22;;;5.80;99.90;;;;;;4990746;28;20203;-49
2023/03/07 04:37:45;;;;;;;4.00;2.70;;;5.90;99.90;;;;;;4986822;28;20253;-50
2023/03/07 04:40:14;;;;;;;4.72;2.75;;;5.90;99.90;;;;;;5003182;28;20195;-48
2023/03/07 04:42:42;;;;;;;3.65;3.15;;;5.80;99.90;;;;;;4997680;28;20230;-51
2023/03/07 04:45:11;;;;;;;3.92;3.50;;;5.80;99.90;;;;;;5007730;28;20202;-48
2023/03/07 04:47:40;;;;;;;6.20;3.45;;;5.90;99.90;;;;;;4997655;28;20564;-50
2023/03/07 04:50:11;;;;;;;4.10;2.95;;;5.80;99.90;;;;;;5004804;28;20214;-49
2023/03/07 04:52:42;;;;;;;4.22;3.50;;;5.80;99.90;;;;;;5012280;28;20221;-48
2023/03/07 04:55:13;;;;;;;4.18;3.38;;;5.80;99.90;;;;;;5003195;28;20298;-48
2023/03/07 04:57:43;;;;;;;3.95;3.45;;;5.90;99.90;;;;;;5002826;28;20697;-51
2023/03/07 05:00:15;;;;;;;5.97;3.30;;;5.90;99.90;;;;;;5001746;28;20194;-50
2023/03/07 05:02:45;;;;;;;4.10;3.05;;;5.90;99.90;;;;;;5007801;28;20659;-49
2023/03/07 05:05:14;;;;;;;4.07;3.28;;;5.90;99.90;;;;;;5016528;28;20548;-48
2023/03/07 05:07:43;;;;;;;5.18;3.00;;;5.80;99.90;;;;;;5003236;28;20695;-49
2023/03/07 05:10:15;;;;;;;3.42;2.70;;;5.80;99.90;;;;;;5006280;28;20198;-47
2023/03/07 05:12:44;;;;;;;3.25;2.70;;;5.80;99.90;;;;;;4991260;28;20228;-49
2023/03/07 05:15:13;;;;;;;4.05;3.30;;;5.80;99.90;;;;;;4989156;28;20246;-51
2023/03/07 05:17:41;;;;;;;4.38;3.47;;;5.80;99.90;;;;;;5002841;28;20214;-48
2023/03/07 05:20:11;;;;;;;4.45;2.95;;;5.80;99.90;;;;;;5003484;28;20203;-47
2023/03/07 05:22:41;;;;;;;3.60;3.08;;;5.80;99.90;;;;;;5007222;28;20285;-49
2023/03/07 05:25:11;;;;;;;4.18;3.25;;;5.80;99.90;;;;;;5002476;28;20617;-48
2023/03/07 05:27:41;;;;;;;4.35;3.70;;;5.80;99.90;;;;;;5019302;28;20223;-47
2023/03/07 05:30:12;;;;;;;5.38;4.03;;;5.80;99.90;;;;;;5006996;28;20546;-50
2023/03/07 05:32:40;;;;;;;4.80;3.78;;;5.80;99.90;;;;;;4998413;28;20219;-50
2023/03/07 05:35:12;;;;;;;3.67;3.00;;;5.80;99.90;;;;;;5001334;28;20227;-50
2023/03/07 05:37:42;;;;;;;4.10;3.58;;;5.80;99.90;;;;;;4998865;28;20219;-48
2023/03/07 05:40:12;;;;;;;3.85;3.13;;;5.80;99.90;;;;;;5006344;28;20247;-49
2023/03/07 05:42:47;;;;;;;3.70;3.10;;;5.80;99.90;;;;;;5023285;28;20233;-50
2023/03/07 05:45:17;;;;;;;3.70;3.17;;;5.80;99.90;;;;;;5002504;28;20241;-49
2023/03/07 05:47:45;;;;;;;3.30;3.00;;;5.80;99.90;;;;;;5006627;28;20242;-50
2023/03/07 05:50:15;;;;;;;3.70;3.30;;;5.80;99.90;;;;;;5005529;28;20212;-50
2023/03/07 05:52:45;;;;;;;4.90;2.97;;;5.80;99.90;;;;;;5005825;28;20633;-50
2023/03/07 05:55:15;;;;;;;5.00;3.72;;;5.80;99.90;;;;;;5006329;28;20192;-47
2023/03/07 05:57:46;;;;;;;5.63;3.83;;;5.80;99.90;;;;;;5002470;28;20715;-48
2023/03/07 06:00:16;;;;;;;3.60;2.83;;;5.80;99.90;;;;;;5000497;28;20238;-47
2023/03/07 06:02:53;;;;;;;3.78;3.35;;;5.80;99.90;;;;;;5005237;28;20318;-49
2023/03/07 06:05:22;;;;;;;3.90;3.10;;;5.80;99.90;;;;;;5009760;28;20196;-48
2023/03/07 06:07:54;;;;;;;3.58;2.65;;;5.80;99.90;;;;;;5004863;28;20231;-50
2023/03/07 06:10:24;;;;;;;3.92;3.33;;;5.80;99.90;;;;;;5002643;28;20613;-48
2023/03/07 06:12:56;;;;;;;3.75;3.30;;;5.80;99.90;;;;;;5005913;28;20223;-47
2023/03/07 06:15:30;;;;;;;3.33;2.80;;;5.80;99.90;;;;;;5004985;28;20198;-49
2023/03/07 06:18:05;;;;;;;4.10;3.63;;;5.80;99.90;;;;;;5001038;28;20485;-47
2023/03/07 06:20:35;;;;;;;6.43;4.43;;;5.80;99.90;;;;;;5004479;28;20241;-49
2023/03/07 06:23:05;;;;;;;4.55;3.47;;;5.80;99.90;;;;;;5003982;28;20314;-50
2023/03/07 06:25:34;;;;;;;4.95;3.28;;;5.80;99.90;;;;;;5002848;28;20245;-47
2023/03/07 06:28:05;;;;;;;5.82;3.60;;;5.80;99.90;;;;;;5001478;28;20298;-48
2023/03/07 06:30:35;;;;;;;5.32;4.03;;;5.80;99.90;;;;;;5004174;28;20197;-49
2023/03/07 06:33:05;;;;;;;4.40;3.53;;;5.80;99.90;;;;;;5004272;28;20226;-47
2023/03/07 06:35:38;;;;;;;5.93;3.45;;;5.80;99.90;;;;;;5002929;28;20199;-49
2023/03/07 06:38:08;;;;;;;3.55;3.03;;;5.80;99.90;;;;;;5016195;28;20219;-49
2023/03/07 06:40:37;;;;;;;4.30;3.47;;;5.80;99.90;;;;;;5000592;28;20212;-48
2023/03/07 06:43:08;;;;;;;4.32;3.33;;;5.80;99.90;;;;;;5020864;28;20290;-50
2023/03/07 06:45:37;;;;;;;4.10;2.80;;;5.80;99.90;;;;;;5004985;28;20607;-49
2023/03/07 06:48:07;;;;;;;4.95;3.00;;;5.80;99.90;;;;;;5016105;28;20753;-48
2023/03/07 06:50:39;;;;;;;5.10;3.45;;;5.80;99.90;;;;;;5005691;28;20571;-51
2023/03/07 06:53:09;;;;;;;4.50;3.55;;;5.80;99.90;;;;;;5004157;28;20669;-48
2023/03/07 06:56:11;;;;;;;4.00;2.95;;;5.80;99.90;;;;;;5011271;28;20573;-48
2023/03/07 06:58:58;;;;;;;5.60;3.58;;;5.80;99.90;;;;;;4997429;28;20306;-48
2023/03/07 07:01:43;;;;;;;6.32;3.70;;;5.80;99.90;;;;;;5003046;28;20222;-49
2023/03/07 07:11:13;;;;;;;4.95;3.20;;;5.80;99.90;;;;;;5032043;28;20206;-49
2023/03/07 07:14:40;;;;;;;4.30;3.10;;;5.80;99.90;;;;;;5029800;28;20210;-49
2023/03/07 07:17:34;;;;;;;4.10;3.08;;;5.80;99.90;;;;;;5008175;28;20711;-49
2023/03/07 07:20:38;;;;;;;4.35;3.10;;;5.80;99.90;;;;;;5024113;28;20207;-49
2023/03/07 07:30:03;;;;;;;4.18;3.63;;;5.80;99.90;;;;;;5007223;28;20660;-48
2023/03/07 07:44:42;;;;;;;3.92;3.15;;;5.80;99.90;;;;;;5007601;28;20199;-48
2023/03/07 07:51:33;;;;;;;5.60;3.78;;;5.80;99.90;;;;;;5006451;28;20191;-47
2023/03/07 08:01:01;;;;;;;3.38;3.08;;;5.80;99.90;;;;;;5020532;28;20219;-48
2023/03/07 08:04:23;;;;;;;3.20;2.90;;;5.80;99.90;;;;;;5009296;28;20328;-48
2023/03/07 08:07:21;;;;;;;3.55;2.80;;;5.80;99.90;;;;;;4985175;28;20219;-48
2023/03/07 08:10:57;;;;;;;2.55;2.25;;;5.80;99.90;;;;;;5058266;23;20556;-69
2023/03/07 08:24:15;;;;;;;3.90;2.85;;;5.80;99.90;;;;;;5007628;28;20230;-69
2023/03/07 08:27:31;;;;;;;5.28;3.80;;;5.80;99.90;;;;;;5013112;28;20218;-67
2023/03/07 08:30:19;;;;;;;3.50;2.33;;;5.80;99.90;;;;;;5000250;28;20195;-67
2023/03/07 08:33:08;;;;;;;3.00;2.33;;;5.80;99.90;;;;;;4979442;28;20220;-67
2023/03/07 08:35:43;;;;;;;3.97;3.10;;;5.80;99.90;;;;;;5000291;28;20188;-68
2023/03/07 08:39:02;;;;;;;3.20;2.60;;;5.80;99.90;;;;;;4975921;28;20269;-68
2023/03/07 08:41:58;;;;;;;2.72;2.35;;;5.80;99.90;;;;;;4980961;28;20225;-69
2023/03/07 08:44:43;;;;;;;4.85;2.67;;;5.80;99.90;;;;;;4975169;28;20204;-69
2023/03/07 08:47:53;;;;;;;4.38;2.38;;;5.80;99.90;;;;;;4994651;28;20227;-68
2023/03/07 08:50:32;;;;;;;2.83;2.15;;;5.90;99.90;;;;;;5001302;28;20191;-68
2023/03/07 08:53:25;;;;;;;3.00;2.40;;;5.80;99.90;;;;;;5003541;28;20226;-68
2023/03/07 08:55:56;;;;;;;2.88;2.33;;;5.80;99.90;;;;;;5008583;28;20203;-69
2023/03/07 08:58:49;;;;;;;3.78;3.25;;;5.90;99.90;;;;;;5001323;28;20685;-69
2023/03/07 09:01:33;;;;;;;3.55;2.38;;;5.90;99.90;;;;;;5004464;28;20228;-67
2023/03/07 09:04:35;;;;;;;2.92;2.53;;;5.90;99.90;;;;;;5004996;28;20197;-68
2023/03/07 09:07:24;;;;;;;3.15;2.60;;;5.90;99.90;;;;;;4998501;28;20469;-67
2023/03/07 09:10:38;;;;;;;2.75;2.15;;;5.90;99.90;;;;;;5004691;28;20261;-67
2023/03/07 09:14:28;;;;;;;2.35;1.83;;;5.80;99.90;;;;;;5007523;28;20223;-67
2023/03/07 10:13:26;;;;;;;3.00;1.70;;;5.90;99.90;;;;;;4924248;28;20227;-68
2023/03/07 10:17:12;;;;;;;3.33;2.42;;;5.90;99.90;;;;;;4954101;28;20311;-68
2023/03/07 10:23:55;;;;;;;2.72;2.17;;;5.90;99.90;;;;;;4991854;28;20732;-68
2023/03/07 10:30:39;;;;;;;2.58;1.83;;;5.90;99.90;;;;;;5045990;28;20536;-48
2023/03/07 10:33:53;;;;;;;2.33;1.85;;;5.90;99.90;;;;;;4988152;28;20224;-48
2023/03/07 10:55:57;;;;;;;3.10;2.60;;;5.90;99.90;;;;;;4989387;28;20204;-48
2023/03/07 10:59:09;;;;;;;3.25;2.53;;;5.90;99.90;;;;;;5015003;28;20221;-49
2023/03/07 11:02:12;;;;;;;3.10;2.60;;;5.90;99.90;;;;;;5014101;28;20246;-49
2023/03/07 11:04:47;;;;;;;2.67;2.08;;;5.90;99.90;;;;;;5010833;28;20280;-47
2023/03/07 11:07:36;;;;;;;3.28;2.25;;;5.90;99.90;;;;;;5009647;28;20219;-49
2023/03/07 11:10:37;;;;;;;4.50;2.25;;;5.90;99.90;;;;;;5009100;28;20231;-47
2023/03/07 11:13:26;;;;;;;3.08;2.30;;;5.90;99.90;;;;;;5004628;28;20230;-48
2023/03/07 11:16:22;;;;;;;2.28;1.77;;;5.90;99.90;;;;;;5018221;28;20193;-50
2023/03/07 11:19:02;;;;;;;3.58;2.35;;;5.90;99.90;;;;;;5017568;28;20232;-48
2023/03/07 11:21:58;;;;;;;2.88;2.22;;;5.90;99.90;;;;;;5000915;28;20713;-50
2023/03/07 11:24:38;;;;;;;3.60;2.65;;;5.90;99.90;;;;;;5025453;28;20203;-48
2023/03/07 11:27:47;;;;;;;2.95;2.22;;;5.90;99.90;;;;;;5026311;28;20211;-49
2023/03/07 11:30:53;;;;;;;2.65;1.90;;;5.90;99.90;;;;;;5024394;28;20215;-47
2023/03/07 11:33:51;;;;;;;2.30;2.00;;;5.90;99.90;;;;;;5026894;28;20288;-48
2023/03/07 11:36:55;;;;;;;3.67;2.45;;;5.90;99.90;;;;;;5033987;28;20200;-48
2023/03/07 11:39:40;;;;;;;2.20;2.00;;;5.90;99.90;;;;;;5033405;28;20196;-48
2023/03/07 11:42:36;;;;;;;2.67;2.15;;;5.90;99.90;;;;;;5007950;28;20225;-48
2023/03/07 11:45:37;;;;;;;2.53;2.20;;;5.90;99.90;;;;;;5011993;28;20254;-49
2023/03/07 11:48:20;;;;;;;2.83;1.95;;;5.90;99.90;;;;;;4994384;28;20698;-48
2023/03/07 11:51:03;;;;;;;2.95;2.10;;;5.90;99.90;;;;;;5002769;28;20223;-48
2023/03/07 11:53:56;;;;;;;2.53;2.10;;;5.90;99.90;;;;;;4998344;28;20251;-49
2023/03/07 11:56:50;;;;;;;3.05;2.00;;;5.90;99.90;;;;;;5002584;28;20705;-48
2023/03/07 12:00:01;;;;;;;2.50;2.05;;;5.90;99.90;;;;;;5010058;28;20203;-48
2023/03/07 12:03:22;;;;;;;2.05;1.85;;;5.90;99.90;;;;;;4999429;28;20503;-48
2023/03/07 12:06:40;;;;;;;2.70;2.33;;;5.90;99.90;;;;;;4932571;29;20681;-47
2023/03/07 12:09:38;;;;;;;2.65;2.42;;;5.90;99.90;;;;;;4939300;28;20227;-48
2023/03/07 12:12:44;;;;;;;2.85;2.25;;;5.90;99.90;;;;;;4990887;28;20241;-48
2023/03/07 12:15:36;;;;;;;2.50;2.10;;;5.90;99.90;;;;;;4960700;28;20200;-48
2023/03/07 12:18:52;;;;;;;3.60;2.47;;;6.00;99.90;;;;;;4999591;28;20224;-49
2023/03/07 12:21:52;;;;;;;2.42;2.10;;;5.90;99.90;;;;;;4980532;28;20302;-49
2023/03/07 12:24:49;;;;;;;3.05;2.30;;;5.90;99.90;;;;;;4991158;28;20494;-47
2023/03/07 12:27:41;;;;;;;3.25;2.20;;;5.90;99.90;;;;;;4995877;28;20220;-47
2023/03/07 12:30:40;;;;;;;3.20;2.83;;;5.90;99.90;;;;;;5006516;28;20213;-48
2023/03/07 12:33:43;;;;;;;3.00;2.22;;;5.90;99.90;;;;;;5004481;28;20598;-49
2023/03/07 12:36:40;;;;;;;2.67;2.20;;;5.90;99.90;;;;;;4992788;28;20196;-48
2023/03/07 12:39:28;;;;;;;3.80;2.95;;;6.00;99.90;;;;;;5009004;28;20192;-48
2023/03/07 12:42:37;;;;;;;3.72;2.58;;;6.00;99.90;;;;;;4990229;28;20788;-49
2023/03/07 12:45:28;;;;;;;3.75;2.58;;;5.90;99.90;;;;;;5006231;28;20193;-47
2023/03/07 12:48:23;;;;;;;2.70;2.20;;;5.90;99.90;;;;;;4984654;28;20225;-48
2023/03/07 12:51:14;;;;;;;3.22;2.75;;;5.90;99.90;;;;;;5007314;28;20213;-47
2023/03/07 12:54:21;;;;;;;2.85;2.60;;;6.00;99.90;;;;;;5005922;28;20189;-47
2023/03/07 12:57:04;;;;;;;3.05;2.75;;;5.90;99.90;;;;;;5000631;28;20263;-48
2023/03/07 13:07:44;;;;;;;5.47;2.85;;;6.00;99.90;;;;;;5005693;28;20256;-49
2023/03/07 13:10:28;;;;;;;3.90;2.85;;;6.00;99.90;;;;;;5005577;28;20216;-50
2023/03/07 13:13:54;;;;;;;3.50;2.35;;;6.00;99.90;;;;;;5005947;28;20212;-48
2023/03/07 13:16:48;;;;;;;4.82;2.88;;;6.00;99.90;;;;;;5004982;28;20197;-50
2023/03/07 13:20:07;;;;;;;5.55;3.10;;;6.00;99.90;;;;;;4989840;28;20192;-48
2023/03/07 13:23:22;;;;;;;2.58;2.38;;;6.00;99.90;;;;;;4994836;28;20231;-47
2023/03/07 13:26:41;;;;;;;3.45;2.42;;;6.00;99.90;;;;;;5001749;28;20279;-48
2023/03/07 13:30:05;;;;;;;3.20;2.35;;;6.00;99.90;;;;;;4987270;28;20290;-47
2023/03/07 13:33:29;;;;;;;3.25;2.50;;;6.00;99.90;;;;;;5002218;28;20577;-48
2023/03/07 13:36:55;;;;;;;;;;;;;;;;;;;;;
2023/03/07 13:40:13;;;;;;;4.30;3.00;;;6.00;99.90;;;;;;5005810;28;20304;-47
2023/03/07 13:47:11;;;;;;;3.60;2.17;;;6.00;99.90;;;;;;5001064;28;20682;-47
2023/03/07 13:50:40;;;;;;;2.45;2.25;;;6.00;99.90;;;;;;4961111;28;20316;-47
2023/03/07 13:56:51;;;;;;;3.45;2.58;;;6.00;99.90;;;;;;4998312;28;20694;-47
2023/03/07 13:59:36;;;;;;;2.35;2.13;;;6.00;99.90;;;;;;5002620;28;20191;-48
2023/03/07 14:02:30;;;;;;;3.38;3.00;;;6.00;99.90;;;;;;5007353;28;20227;-49
2023/03/07 14:05:14;;;;;;;3.88;3.10;;;6.00;99.90;;;;;;5008674;28;20208;-48
2023/03/07 14:08:02;;;;;;;3.22;2.28;;;6.00;99.90;;;;;;4978127;28;20373;-46
2023/03/07 14:10:48;;;;;;;2.50;2.15;;;6.00;99.90;;;;;;5007450;28;20259;-48
2023/03/07 14:14:02;;;;;;;2.78;2.35;;;6.00;99.90;;;;;;4992960;28;20498;-47
2023/03/07 14:17:20;;;;;;;4.35;3.40;;;6.00;99.90;;;;;;4994913;28;20747;-48
2023/03/07 14:20:10;;;;;;;2.55;2.03;;;6.00;99.90;;;;;;4932180;29;20190;-50
2023/03/07 14:23:05;;;;;;;3.65;2.50;;;6.00;99.90;;;;;;4934113;28;20229;-47
2023/03/07 14:25:51;;;;;;;2.72;2.30;;;6.00;99.90;;;;;;5000816;28;20425;-49
2023/03/07 14:28:33;;;;;;;2.67;2.42;;;6.00;99.90;;;;;;4996643;28;20635;-47
2023/03/07 14:31:15;;;;;;;2.65;2.00;;;6.00;99.90;;;;;;4990436;28;20216;-49
2023/03/07 14:34:07;;;;;;;1.92;1.73;;;6.00;99.90;;;;;;4988388;28;20693;-48
2023/03/07 14:37:25;;;;;;;2.53;2.10;;;6.00;99.90;;;;;;5003069;28;20311;-48
2023/03/07 14:40:33;;;;;;;2.95;2.05;;;6.00;99.90;;;;;;4985682;28;20235;-48
2023/03/07 14:43:33;;;;;;;3.47;2.13;;;6.00;99.90;;;;;;5004682;28;20228;-49
2023/03/07 14:46:13;;;;;;;3.00;2.22;;;6.00;99.90;;;;;;4987519;28;20196;-48
2023/03/07 14:49:12;;;;;;;2.67;2.05;;;6.00;99.90;;;;;;5009588;28;20188;-47
2023/03/07 14:51:58;;;;;;;2.60;1.90;;;6.00;99.90;;;;;;4998415;28;20325;-48
2023/03/07 14:54:42;;;;;;;2.28;1.70;;;6.00;99.90;;;;;;4994292;28;20197;-49
2023/03/07 14:57:45;;;;;;;2.75;1.80;;;6.00;99.90;;;;;;4977490;28;20225;-49
2023/03/07 15:00:43;;;;;;;2.30;1.70;;;6.00;99.90;;;;;;4989797;28;20197;-48
2023/03/07 15:03:31;;;;;;;2.47;2.00;;;6.00;99.90;;;;;;4965892;28;20233;-48
2023/03/07 15:06:21;;;;;;;1.77;1.52;;;6.00;99.90;;;;;;5003327;28;20204;-50
2023/03/07 15:09:21;;;;;;;2.35;1.70;;;6.00;99.90;;;;;;4993936;28;20274;-47
2023/03/07 15:12:05;;;;;;;2.05;1.85;;;6.00;99.90;;;;;;5001002;28;20659;-49
2023/03/07 15:14:49;;;;;;;4.07;1.80;;;6.00;99.90;;;;;;5001657;28;20975;-50
2023/03/07 15:17:44;;;;;;;2.85;2.20;;;6.00;99.90;;;;;;4991825;28;20666;-49
2023/03/07 15:20:32;;;;;;;3.47;1.70;;;6.00;99.90;;;;;;5011628;28;20191;-48
2023/03/07 15:23:19;;;;;;;2.35;1.80;;;6.00;99.90;;;;;;5007732;28;20228;-47
2023/03/07 15:26:25;;;;;;;2.58;2.30;;;6.00;99.90;;;;;;5009682;28;20243;-50
2023/03/07 15:29:13;;;;;;;1.75;1.55;;;6.00;99.90;;;;;;5008519;28;20204;-47
2023/03/07 15:32:01;;;;;;;2.42;2.00;;;6.00;99.90;;;;;;4991424;28;20223;-48
2023/03/07 15:34:47;;;;;;;2.47;1.60;;;6.00;99.90;;;;;;5006049;28;20192;-49
2023/03/07 15:37:32;;;;;;;2.28;2.08;;;6.00;99.90;;;;;;4991930;28;20301;-47
2023/03/07 15:40:27;;;;;;;2.35;1.58;;;6.00;99.90;;;;;;4993396;28;20289;-48
2023/03/07 15:43:21;;;;;;;2.00;1.45;;;6.00;99.90;;;;;;4992293;28;20232;-47
2023/03/07 15:46:05;;;;;;;1.95;1.73;;;6.00;99.90;;;;;;4971551;28;20193;-47
2023/03/07 15:48:50;;;;;;;2.25;1.83;;;6.00;99.90;;;;;;5010716;28;20222;-48
2023/03/07 15:51:38;;;;;;;1.75;1.63;;;6.00;99.90;;;;;;4993083;28;20225;-47
2023/03/07 15:54:42;;;;;;;1.50;1.40;;;6.00;99.90;;;;;;4993217;28;20210;-48
2023/03/07 15:57:22;;;;;;;1.75;1.65;;;6.00;99.90;;;;;;4989847;28;20217;-50
2023/03/07 16:00:21;;;;;;;1.73;1.63;;;6.00;99.90;;;;;;5001261;28;20200;-47
2023/03/07 16:03:32;;;;;;;1.98;1.67;;;6.00;99.90;;;;;;4979987;28;20307;-49
2023/03/07 16:06:03;;;;;;;3.20;2.13;;;6.00;99.90;;;;;;5008563;28;20266;-47
2023/03/07 16:08:34;;;;;;;3.17;1.92;;;6.00;99.90;;;;;;4987523;28;20682;-48
2023/03/07 16:11:05;;;;;;;1.90;1.60;;;6.00;99.90;;;;;;5010023;28;20239;-49
2023/03/07 16:13:38;;;;;;;2.30;1.65;;;6.00;99.90;;;;;;4992993;28;20275;-48
2023/03/07 16:16:19;;;;;;;2.40;1.65;;;6.00;99.90;;;;;;5008892;28;20204;-48
2023/03/07 16:18:49;;;;;;;2.08;1.70;;;6.00;99.90;;;;;;4988569;28;20192;-47
2023/03/07 16:21:20;;;;;;;2.10;1.60;;;6.00;99.90;;;;;;5006859;28;20378;-47
2023/03/07 16:23:50;;;;;;;2.50;1.95;;;6.00;99.90;;;;;;5013450;28;20589;-47
2023/03/07 16:26:21;;;;;;;2.05;1.48;;;6.00;99.90;;;;;;5007762;28;20663;-47
2023/03/07 16:28:52;;;;;;;2.45;2.05;;;6.00;99.90;;;;;;4992932;28;20207;-50
2023/03/07 16:31:21;;;;;;;2.60;2.40;;;6.00;99.90;;;;;;5013604;28;20232;-49
2023/03/07 16:33:51;;;;;;;2.42;1.60;;;6.00;99.90;;;;;;4993002;28;20229;-48
2023/03/07 16:36:20;;;;;;;2.60;1.98;;;6.00;99.90;;;;;;4992998;28;20766;-47
2023/03/07 16:38:50;;;;;;;1.38;1.27;;;6.00;99.90;;;;;;4988683;28;20189;-48
2023/03/07 16:41:20;;;;;;;2.17;1.60;;;6.00;99.90;;;;;;5011247;28;20220;-47